Time;durP1;ratioP1;P1;durP2;ratioP2;P2;SDS_P1;SDS_P2;PMS_P1;PMS_P2;Temp;Humidity;BMP_temperature;BMP_pressure;BME280_temperature;BME280_humidity;BME280_pressure;Samples;Min_cycle;Max_cycle;Signal;HPM_P1;HPM_P2
2022/07/16 00:02:07;;;;;;;4.13;2.47;;;;;;;16.02;64.97;96314.03;5025100;28;24574;-76
2022/07/16 00:04:33;;;;;;;4.03;3.05;;;;;;;15.97;64.69;96316.13;5022476;28;24440;-76
2022/07/16 00:07:01;;;;;;;6.00;2.58;;;;;;;15.88;65.06;96317.69;5029725;28;24578;-75
2022/07/16 00:09:28;;;;;;;3.33;2.40;;;;;;;15.94;64.96;96325.06;5023187;28;24829;-76
2022/07/16 00:11:54;;;;;;;4.03;2.95;;;;;;;15.70;65.39;96324.28;5029382;28;24447;-76
2022/07/16 00:14:21;;;;;;;4.32;2.42;;;;;;;15.77;65.31;96325.47;5024314;28;24435;-76
2022/07/16 00:16:47;;;;;;;3.70;2.40;;;;;;;15.73;65.31;96327.50;5029180;28;24447;-76
2022/07/16 00:19:15;;;;;;;3.25;2.40;;;;;;;15.72;65.19;96318.00;5027840;28;24440;-76
2022/07/16 00:21:42;;;;;;;10.30;3.00;;;;;;;15.61;65.23;96320.53;5028361;28;24526;-76
2022/07/16 00:24:10;;;;;;;3.50;2.75;;;;;;;15.51;65.05;96319.56;5029607;28;24459;-75
2022/07/16 00:26:36;;;;;;;4.88;2.88;;;;;;;15.35;65.64;96324.22;5028151;28;24436;-75
2022/07/16 00:29:03;;;;;;;3.42;2.25;;;;;;;15.36;65.76;96320.69;5028312;28;24448;-76
2022/07/16 00:31:30;;;;;;;3.90;2.53;;;;;;;15.17;66.13;96319.41;5027952;28;24442;-76
2022/07/16 00:33:56;;;;;;;3.25;2.40;;;;;;;15.13;65.46;96328.41;5019725;28;24437;-75
2022/07/16 00:36:23;;;;;;;2.70;2.33;;;;;;;14.99;65.41;96324.16;5027266;28;24440;-75
2022/07/16 00:38:49;;;;;;;4.20;2.92;;;;;;;14.93;66.00;96326.38;5021045;28;24509;-76
2022/07/16 00:41:17;;;;;;;4.45;2.97;;;;;;;14.71;67.20;96322.66;5027840;28;24458;-75
2022/07/16 00:43:48;;;;;;;3.35;2.63;;;;;;;14.31;69.81;96324.59;5025544;28;24529;-75
2022/07/16 00:46:15;;;;;;;5.65;3.15;;;;;;;14.40;68.62;96325.75;5032148;28;24424;-75
2022/07/16 00:48:42;;;;;;;3.40;2.78;;;;;;;14.20;70.69;96327.09;5031039;28;25004;-75
2022/07/16 00:51:09;;;;;;;2.67;2.45;;;;;;;14.17;71.20;96322.94;5032158;28;24431;-75
2022/07/16 00:53:35;;;;;;;3.20;2.90;;;;;;;14.24;70.93;96332.00;5027047;28;24428;-75
2022/07/16 00:56:02;;;;;;;3.20;2.85;;;;;;;14.10;72.22;96329.50;5027534;28;24435;-76
2022/07/16 00:58:30;;;;;;;3.45;2.90;;;;;;;14.04;73.41;96332.50;5030787;28;24440;-75
2022/07/16 01:00:56;;;;;;;3.55;2.70;;;;;;;14.08;72.52;96322.72;5027020;28;24444;-75
2022/07/16 01:03:23;;;;;;;7.30;3.03;;;;;;;14.06;73.09;96333.25;5028821;28;24464;-76
2022/07/16 01:05:49;;;;;;;4.10;3.00;;;;;;;14.17;71.08;96335.97;5021357;28;24439;-75
2022/07/16 01:08:16;;;;;;;3.80;3.00;;;;;;;13.99;73.79;96330.22;5026462;28;24439;-76
2022/07/16 01:10:42;;;;;;;6.40;3.58;;;;;;;13.95;73.48;96325.34;5021115;28;24990;-75
2022/07/16 01:13:10;;;;;;;3.25;2.80;;;;;;;13.90;73.73;96327.41;5023622;28;24482;-75
2022/07/16 01:15:38;;;;;;;5.00;2.72;;;;;;;13.90;73.67;96327.41;5029208;28;24436;-76
2022/07/16 01:18:05;;;;;;;3.35;2.80;;;;;;;13.97;72.73;96320.84;5029306;28;24482;-75
2022/07/16 01:20:31;;;;;;;7.53;2.88;;;;;;;13.91;73.26;96324.72;5029969;28;24442;-75
2022/07/16 01:22:58;;;;;;;3.83;3.00;;;;;;;13.83;70.42;96323.53;5024845;28;24471;-75
2022/07/16 01:25:26;;;;;;;4.25;2.85;;;;;;;13.78;72.24;96324.69;5030391;28;24803;-76
2022/07/16 01:27:52;;;;;;;3.23;2.80;;;;;;;13.62;72.79;96323.22;5029212;28;24447;-76
2022/07/16 01:30:19;;;;;;;4.05;3.13;;;;;;;13.33;75.50;96320.75;5025291;28;24444;-76
2022/07/16 01:32:45;;;;;;;4.10;3.10;;;;;;;13.37;75.65;96316.16;5031168;28;24440;-76
2022/07/16 01:35:12;;;;;;;4.45;2.83;;;;;;;13.41;75.02;96318.47;5029465;28;24447;-75
2022/07/16 01:37:38;;;;;;;4.15;2.90;;;;;;;13.48;75.09;96313.69;5020029;28;24432;-75
2022/07/16 01:40:06;;;;;;;7.33;2.97;;;;;;;13.63;73.94;96322.28;5025836;28;24487;-75
2022/07/16 01:42:34;;;;;;;3.95;3.00;;;;;;;13.53;73.22;96319.44;5027939;28;25015;-75
2022/07/16 01:45:01;;;;;;;4.65;3.03;;;;;;;13.41;73.62;96323.66;5031801;28;24432;-75
2022/07/16 01:47:27;;;;;;;4.78;2.83;;;;;;;13.53;73.36;96316.81;5027685;28;24432;-76
2022/07/16 01:49:54;;;;;;;4.32;3.30;;;;;;;13.47;72.33;96319.84;5020771;28;25081;-75
2022/07/16 01:52:22;;;;;;;3.58;2.90;;;;;;;13.38;72.43;96320.44;5029027;28;24440;-75
2022/07/16 01:54:51;;;;;;;2.90;2.60;;;;;;;13.03;75.30;96316.53;5030411;28;24972;-76
2022/07/16 01:57:19;;;;;;;8.25;3.35;;;;;;;12.97;75.74;96319.53;5031200;28;24501;-75
2022/07/16 01:59:47;;;;;;;4.82;2.85;;;;;;;13.01;75.92;96310.59;5026468;28;24440;-75
2022/07/16 02:02:14;;;;;;;4.07;3.28;;;;;;;13.02;76.29;96314.06;5028785;28;24436;-75
2022/07/16 02:04:42;;;;;;;3.97;3.17;;;;;;;13.01;76.26;96320.16;5031498;28;24452;-75
2022/07/16 02:07:09;;;;;;;3.83;2.97;;;;;;;13.09;76.21;96320.53;5029314;28;24486;-76
2022/07/16 02:09:36;;;;;;;5.57;2.78;;;;;;;13.19;75.58;96313.78;5027851;28;24439;-75
2022/07/16 02:12:02;;;;;;;3.65;2.85;;;;;;;13.22;75.57;96313.59;5029159;28;24443;-75
2022/07/16 02:14:29;;;;;;;2.88;2.63;;;;;;;13.29;75.28;96311.47;5024433;28;24432;-75
2022/07/16 02:16:57;;;;;;;3.20;2.63;;;;;;;13.32;74.82;96317.31;5017285;28;24435;-75
2022/07/16 02:19:24;;;;;;;4.38;3.00;;;;;;;13.51;74.15;96319.53;5025583;28;24510;-75
2022/07/16 02:21:50;;;;;;;3.50;2.70;;;;;;;13.41;74.46;96309.84;5029396;28;24448;-75
2022/07/16 02:24:17;;;;;;;4.03;3.03;;;;;;;13.27;74.41;96306.38;5026390;28;24456;-76
2022/07/16 02:26:43;;;;;;;5.00;2.80;;;;;;;13.16;73.78;96305.34;5029814;28;24522;-75
2022/07/16 02:29:11;;;;;;;5.90;2.80;;;;;;;13.01;74.50;96309.75;5028760;28;24993;-75
2022/07/16 02:31:37;;;;;;;3.85;3.15;;;;;;;12.82;76.59;96310.94;5031065;28;24448;-75
2022/07/16 02:34:05;;;;;;;3.45;2.78;;;;;;;12.76;75.85;96313.09;5026817;28;24428;-76
2022/07/16 02:36:32;;;;;;;3.30;3.00;;;;;;;12.77;76.11;96310.41;5028550;28;24494;-75
2022/07/16 02:38:58;;;;;;;4.10;3.00;;;;;;;12.73;76.44;96313.28;5026480;28;24482;-75
2022/07/16 02:41:25;;;;;;;9.65;3.25;;;;;;;12.68;76.59;96307.53;5029230;28;24459;-75
2022/07/16 02:43:51;;;;;;;3.92;3.10;;;;;;;12.60;78.51;96311.44;5025581;28;24456;-75
2022/07/16 02:46:17;;;;;;;3.53;3.03;;;;;;;12.50;78.46;96307.75;5028506;28;24981;-76
2022/07/16 02:48:44;;;;;;;3.63;3.10;;;;;;;12.46;79.46;96298.50;5023682;28;24511;-77
2022/07/16 02:51:12;;;;;;;3.92;2.97;;;;;;;12.47;79.31;96304.53;5026378;28;24448;-77
2022/07/16 02:53:39;;;;;;;3.47;3.03;;;;;;;12.52;79.40;96302.47;5022271;28;24439;-77
2022/07/16 02:56:06;;;;;;;5.53;3.20;;;;;;;12.56;79.54;96309.97;5013316;28;24512;-76
2022/07/16 02:58:33;;;;;;;3.72;2.80;;;;;;;12.64;78.49;96306.06;5017465;28;24440;-77
2022/07/16 03:00:59;;;;;;;5.35;3.35;;;;;;;12.74;76.67;96310.59;5027981;28;24443;-75
2022/07/16 03:03:26;;;;;;;4.50;3.00;;;;;;;12.56;78.14;96315.16;5020983;28;24464;-77
2022/07/16 03:05:52;;;;;;;3.28;2.65;;;;;;;12.54;78.18;96311.84;5020734;28;24439;-77
2022/07/16 03:08:20;;;;;;;8.60;2.95;;;;;;;12.55;77.88;96312.66;5025308;28;24439;-77
2022/07/16 03:10:46;;;;;;;5.75;3.25;;;;;;;12.48;78.38;96321.78;5018616;28;25003;-77
2022/07/16 03:13:13;;;;;;;3.78;2.60;;;;;;;12.48;78.21;96321.78;5023219;28;24440;-77
2022/07/16 03:15:39;;;;;;;4.63;3.10;;;;;;;12.52;77.88;96318.88;5020014;28;24997;-77
2022/07/16 03:18:06;;;;;;;3.25;2.95;;;;;;;12.47;78.59;96322.72;5024699;28;24447;-77
2022/07/16 03:20:32;;;;;;;8.15;2.60;;;;;;;12.46;78.97;96321.00;5025873;28;24822;-76
2022/07/16 03:22:59;;;;;;;3.97;3.17;;;;;;;12.47;79.22;96320.94;5023187;28;24505;-77
2022/07/16 03:25:27;;;;;;;3.30;2.80;;;;;;;12.50;78.87;96323.34;5017418;28;24902;-77
2022/07/16 03:27:53;;;;;;;3.08;2.78;;;;;;;12.47;79.58;96312.31;5019039;28;24795;-77
2022/07/16 03:30:20;;;;;;;4.30;2.97;;;;;;;12.45;80.05;96316.75;5018070;28;24437;-77
2022/07/16 03:32:46;;;;;;;5.38;2.95;;;;;;;12.40;79.79;96319.66;5020408;28;24443;-76
2022/07/16 03:35:14;;;;;;;3.70;2.90;;;;;;;12.38;81.14;96323.25;5020014;28;24444;-77
2022/07/16 03:40:23;;;;;;;5.63;3.20;;;;;;;12.46;80.86;96311.47;5015409;28;24481;-77
2022/07/16 03:42:51;;;;;;;3.83;3.30;;;;;;;12.46;80.04;96321.00;5021546;28;24542;-77
2022/07/16 03:45:17;;;;;;;3.85;3.03;;;;;;;12.42;80.20;96317.81;5022266;28;24463;-77
2022/07/16 03:47:44;;;;;;;5.10;3.00;;;;;;;12.46;79.77;96311.47;5018742;28;25024;-77
2022/07/16 03:50:10;;;;;;;2.72;2.53;;;;;;;12.35;80.02;96319.94;5014938;28;24945;-77
2022/07/16 03:52:37;;;;;;;5.25;3.13;;;;;;;12.36;79.72;96325.97;5021881;28;24883;-77
2022/07/16 03:55:04;;;;;;;4.45;3.00;;;;;;;12.40;79.93;96324.00;5022773;28;24438;-77
2022/07/16 03:57:30;;;;;;;4.95;3.00;;;;;;;12.34;80.10;96325.19;5019243;28;24435;-77
2022/07/16 03:59:58;;;;;;;3.20;2.90;;;;;;;12.33;78.93;96326.13;5018000;28;24439;-77
2022/07/16 04:02:24;;;;;;;5.47;2.83;;;;;;;12.30;78.00;96336.72;5016890;28;24451;-73
2022/07/16 04:04:51;;;;;;;3.92;3.05;;;;;;;12.17;79.28;96336.63;5049134;23;25046;-74
2022/07/16 04:07:17;;;;;;;5.75;3.08;;;;;;;12.08;78.36;96340.59;5019767;28;24462;-76
2022/07/16 04:09:43;;;;;;;3.00;2.70;;;;;;;12.11;77.49;96347.38;5021570;28;24435;-74
2022/07/16 04:12:10;;;;;;;4.15;3.03;;;;;;;12.15;77.53;96341.06;5017771;28;24436;-74
2022/07/16 04:14:36;;;;;;;3.72;3.38;;;;;;;11.89;79.03;96342.59;5024928;28;24434;-74
2022/07/16 04:17:04;;;;;;;4.65;3.33;;;;;;;11.84;80.41;96344.66;5021270;28;24444;-74
2022/07/16 04:19:30;;;;;;;5.75;3.30;;;;;;;11.76;81.29;96339.06;5028010;28;24439;-74
2022/07/16 04:21:57;;;;;;;4.05;2.90;;;;;;;11.62;82.62;96347.63;5022101;28;24436;-74
2022/07/16 04:24:24;;;;;;;3.22;2.92;;;;;;;11.47;85.29;96353.69;5018123;28;24829;-74
2022/07/16 04:26:50;;;;;;;4.65;3.38;;;;;;;11.46;86.23;96345.09;5014331;28;24436;-74
2022/07/16 04:29:16;;;;;;;4.70;3.28;;;;;;;11.57;86.38;96345.31;5018543;28;24443;-74
2022/07/16 04:31:43;;;;;;;4.30;3.33;;;;;;;11.67;86.41;96348.19;5025301;28;24436;-74
2022/07/16 04:34:11;;;;;;;4.30;3.03;;;;;;;11.83;85.67;96348.16;5018760;28;24829;-75
2022/07/16 04:36:37;;;;;;;6.05;3.42;;;;;;;11.97;85.44;96350.78;5025216;28;24997;-75
2022/07/16 04:39:03;;;;;;;3.70;3.13;;;;;;;12.06;85.93;96347.66;5022268;28;24439;-76
2022/07/16 04:41:30;;;;;;;4.35;3.67;;;;;;;12.19;85.68;96358.13;5018234;28;24440;-78
2022/07/16 04:43:56;;;;;;;4.03;3.43;;;;;;;12.32;85.61;96347.84;5021523;28;24496;-79
2022/07/16 04:46:23;;;;;;;5.32;3.45;;;;;;;12.49;87.32;96345.03;5023071;28;24436;-76
2022/07/16 04:48:49;;;;;;;4.70;3.77;;;;;;;12.65;85.55;96344.13;5019016;28;24511;-75
2022/07/16 04:51:17;;;;;;;4.13;3.20;;;;;;;12.78;84.87;96348.44;5016806;28;25031;-76
2022/07/16 04:53:44;;;;;;;4.15;3.75;;;;;;;12.97;82.97;96350.72;5019780;28;24436;-76
2022/07/16 04:56:10;;;;;;;4.32;3.78;;;;;;;13.04;81.76;96353.78;5015007;28;24787;-76
2022/07/16 04:58:37;;;;;;;6.80;3.45;;;;;;;12.93;80.02;96356.22;5018912;28;24435;-78
2022/07/16 05:01:03;;;;;;;3.28;2.97;;;;;;;12.97;79.57;96360.28;5022073;28;24436;-76
2022/07/16 05:03:30;;;;;;;5.03;3.50;;;;;;;12.94;78.98;96355.28;5021164;28;24436;-77
2022/07/16 05:05:57;;;;;;;7.05;3.20;;;;;;;12.94;79.05;96360.47;5017621;28;24448;-77
2022/07/16 05:08:25;;;;;;;3.92;3.22;;;;;;;12.91;79.47;96360.69;5020393;28;24424;-77
2022/07/16 05:10:51;;;;;;;5.53;3.28;;;;;;;13.04;78.63;96356.38;5017466;28;24427;-76
2022/07/16 05:13:17;;;;;;;4.82;3.40;;;;;;;13.19;78.19;96352.81;5020751;28;24436;-77
2022/07/16 05:15:44;;;;;;;4.38;3.05;;;;;;;13.43;77.58;96353.03;5017258;28;24435;-77
2022/07/16 05:18:11;;;;;;;5.95;3.25;;;;;;;13.64;75.62;96358.59;5026595;28;24428;-77
2022/07/16 05:20:37;;;;;;;4.82;3.30;;;;;;;13.50;74.05;96361.28;5013440;28;24976;-77
2022/07/16 05:23:04;;;;;;;4.22;3.22;;;;;;;13.46;75.27;96355.44;5021032;28;24447;-76
2022/07/16 05:25:32;;;;;;;4.63;3.00;;;;;;;13.43;75.02;96360.00;5014495;28;25009;-76
2022/07/16 05:27:58;;;;;;;5.05;3.13;;;;;;;13.39;74.63;96356.78;5025569;28;24436;-77
2022/07/16 05:30:25;;;;;;;8.67;3.20;;;;;;;13.53;73.22;96355.84;5013735;28;24504;-76
2022/07/16 05:32:51;;;;;;;7.03;3.15;;;;;;;13.46;73.95;96363.25;5021970;28;24564;-78
2022/07/16 05:35:18;;;;;;;3.63;2.95;;;;;;;13.52;73.72;96369.81;5027536;28;24532;-76
2022/07/16 05:37:45;;;;;;;3.30;3.00;;;;;;;13.53;72.93;96368.88;5019975;28;24447;-76
2022/07/16 05:40:12;;;;;;;4.78;2.90;;;;;;;13.59;71.67;96358.06;5013418;28;24794;-76
2022/07/16 05:42:40;;;;;;;3.50;2.60;;;;;;;13.68;71.42;96361.81;5018217;28;24435;-77
2022/07/16 05:45:08;;;;;;;3.92;2.70;;;;;;;13.85;71.23;96356.34;5017808;28;24464;-76
2022/07/16 05:47:34;;;;;;;3.78;3.05;;;;;;;13.78;72.02;96357.69;5013214;28;24447;-77
2022/07/16 05:50:01;;;;;;;5.07;2.90;;;;;;;14.20;70.36;96360.94;5017099;28;24436;-77
2022/07/16 05:52:27;;;;;;;4.60;3.08;;;;;;;14.41;68.89;96366.47;5017300;28;24521;-77
2022/07/16 05:54:54;;;;;;;3.45;2.75;;;;;;;14.76;68.75;96364.91;5023913;28;24439;-77
2022/07/16 05:57:20;;;;;;;5.85;2.97;;;;;;;15.13;69.01;96359.72;5025938;28;24436;-78
2022/07/16 05:59:48;;;;;;;6.43;2.85;;;;;;;15.39;68.62;96370.06;5022627;28;24440;-77
2022/07/16 06:02:15;;;;;;;5.07;2.95;;;;;;;15.45;65.13;96361.75;5019382;28;24475;-77
2022/07/16 06:04:41;;;;;;;5.53;2.85;;;;;;;15.82;66.74;96364.31;5011350;28;24507;-77
2022/07/16 06:07:08;;;;;;;2.70;2.40;;;;;;;16.08;66.45;96362.38;5015041;28;24459;-77
2022/07/16 06:09:34;;;;;;;4.03;2.72;;;;;;;16.32;63.58;96367.53;5021391;28;24452;-77
2022/07/16 06:12:00;;;;;;;4.60;2.65;;;;;;;16.50;60.82;96366.13;5017014;28;24814;-78
2022/07/16 06:14:27;;;;;;;4.90;2.70;;;;;;;16.37;61.23;96360.97;5022456;28;24459;-77
2022/07/16 06:16:55;;;;;;;4.65;3.03;;;;;;;16.40;60.65;96363.38;5022397;28;24790;-76
2022/07/16 06:19:21;;;;;;;5.60;2.97;;;;;;;16.18;61.35;96373.78;5021202;28;24439;-77
2022/07/16 06:21:47;;;;;;;6.93;2.60;;;;;;;16.06;63.09;96380.78;5011239;28;24984;-77
2022/07/16 06:24:14;;;;;;;3.05;2.60;;;;;;;16.11;62.62;96381.25;5020816;28;25004;-76
2022/07/16 06:26:46;;;;;;;5.10;2.83;;;;;;;16.11;61.64;96381.25;5011156;28;24791;-76
2022/07/16 06:29:13;;;;;;;2.53;2.15;;;;;;;16.07;59.26;96387.66;5027679;28;24467;-77
2022/07/16 06:31:39;;;;;;;5.68;2.92;;;;;;;16.19;60.10;96380.69;5019521;28;24499;-77
2022/07/16 06:34:07;;;;;;;5.93;2.80;;;;;;;16.31;60.24;96382.34;5024819;28;24456;-77
2022/07/16 06:36:34;;;;;;;4.53;2.70;;;;;;;16.45;60.04;96382.13;5017719;28;24423;-77
2022/07/16 06:39:00;;;;;;;3.40;2.20;;;;;;;16.95;59.05;96387.06;5016930;28;24511;-76
2022/07/16 06:41:26;;;;;;;3.92;2.38;;;;;;;17.43;57.97;96381.50;5029003;28;24432;-76
2022/07/16 06:43:53;;;;;;;4.57;2.38;;;;;;;17.72;55.21;96378.28;5024914;28;24817;-77
2022/07/16 06:46:19;;;;;;;5.18;2.25;;;;;;;18.16;54.31;96374.66;5030646;28;24444;-79
2022/07/16 06:48:46;;;;;;;4.97;2.80;;;;;;;18.53;52.79;96377.63;5018127;28;24440;-75
2022/07/16 06:51:13;;;;;;;3.90;2.50;;;;;;;18.86;51.75;96386.22;5030131;28;24463;-75
2022/07/16 06:53:40;;;;;;;3.72;2.08;;;;;;;19.16;50.14;96380.09;5030850;28;24431;-74
2022/07/16 06:56:07;;;;;;;4.03;2.10;;;;;;;19.42;49.56;96384.84;5017196;28;24428;-75
2022/07/16 06:58:34;;;;;;;3.00;2.10;;;;;;;19.50;48.76;96385.00;5019108;28;25042;-75
2022/07/16 07:01:01;;;;;;;2.95;2.17;;;;;;;19.72;48.96;96386.56;5014026;28;24439;-76
2022/07/16 07:03:27;;;;;;;3.78;2.10;;;;;;;19.47;47.58;96380.88;5021698;28;24450;-75
2022/07/16 07:05:56;;;;;;;3.30;2.07;;;;;;;19.59;47.82;96386.81;5025731;28;24436;-75
2022/07/16 07:08:23;;;;;;;3.58;1.98;;;;;;;19.71;47.02;96388.38;5020829;28;24433;-78
2022/07/16 07:10:50;;;;;;;2.67;1.80;;;;;;;19.90;47.14;96387.56;5027713;28;24433;-75
2022/07/16 07:13:16;;;;;;;2.38;1.80;;;;;;;20.38;45.71;96394.56;5019536;28;24431;-77
2022/07/16 07:15:43;;;;;;;3.75;2.10;;;;;;;20.35;44.54;96391.38;5012696;28;24424;-76
2022/07/16 07:18:10;;;;;;;4.70;1.77;;;;;;;20.65;43.30;96380.66;5022160;28;24459;-75
2022/07/16 07:20:36;;;;;;;3.92;1.85;;;;;;;21.06;43.23;96378.53;5010667;28;24432;-75
2022/07/16 07:23:02;;;;;;;2.87;1.70;;;;;;;21.17;42.61;96381.03;5010358;28;24436;-77
2022/07/16 07:25:30;;;;;;;5.00;1.83;;;;;;;21.48;42.39;96378.09;5010546;28;24456;-75
2022/07/16 07:27:57;;;;;;;3.78;1.73;;;;;;;21.75;43.40;96385.09;5010686;28;24427;-77
2022/07/16 07:30:23;;;;;;;3.17;1.87;;;;;;;21.50;39.68;96384.03;5023905;28;24440;-76
2022/07/16 07:32:50;;;;;;;2.58;1.23;;;;;;;21.63;41.31;96387.13;5011846;28;24433;-75
2022/07/16 07:35:16;;;;;;;2.40;1.33;;;;;;;21.92;40.39;96384.28;5010613;28;24420;-75
2022/07/16 07:37:42;;;;;;;3.20;1.23;;;;;;;21.75;38.36;96385.91;5010494;28;24427;-76
2022/07/16 07:40:10;;;;;;;5.00;1.40;;;;;;;21.38;38.72;96385.22;5010627;28;24475;-75
2022/07/16 07:42:37;;;;;;;2.75;1.38;;;;;;;21.30;37.78;96378.03;5028591;28;24430;-75
2022/07/16 07:45:04;;;;;;;5.13;1.60;;;;;;;21.21;39.34;96384.16;5029849;28;24530;-75
2022/07/16 07:47:31;;;;;;;2.60;1.27;;;;;;;21.30;38.38;96378.03;5012392;28;24432;-75
2022/07/16 07:49:58;;;;;;;4.63;1.30;;;;;;;21.46;39.45;96380.84;5010476;28;24515;-76
2022/07/16 07:52:25;;;;;;;2.97;1.27;;;;;;;21.58;37.50;96378.00;5026474;28;24423;-75
2022/07/16 07:54:51;;;;;;;3.17;1.58;;;;;;;;;;5020218;28;24458;-75
2022/07/16 07:57:18;;;;;;;9.68;1.77;;;;;;;21.39;36.89;96374.50;5026467;28;24466;-77
2022/07/16 07:59:45;;;;;;;4.07;1.35;;;;;;;21.50;37.09;96368.22;5030424;28;24785;-75
2022/07/16 08:02:12;;;;;;;3.40;1.80;;;;;;;21.53;37.35;96375.00;5023673;28;24443;-78
2022/07/16 08:04:38;;;;;;;3.60;1.40;;;;;;;21.47;39.16;96368.53;5021505;28;24439;-75
2022/07/16 08:07:05;;;;;;;5.03;1.90;;;;;;;22.51;37.46;96363.47;5024762;28;24491;-75
2022/07/16 08:09:32;;;;;;;10.75;1.95;;;;;;;22.86;36.67;96365.13;5022855;28;24424;-76
2022/07/16 08:11:59;;;;;;;2.20;1.55;;;;;;;22.84;37.31;96374.19;5023818;28;24488;-75
2022/07/16 08:14:25;;;;;;;1.88;1.30;;;;;;;22.50;35.96;96374.16;5016803;28;24428;-75
2022/07/16 08:16:53;;;;;;;2.30;1.60;;;;;;;23.19;36.74;96375.88;5029345;28;24443;-75
2022/07/16 08:19:20;;;;;;;4.60;1.50;;;;;;;23.19;36.74;96370.59;5034210;28;24432;-75
2022/07/16 08:21:47;;;;;;;4.05;1.80;;;;;;;22.70;36.29;96375.63;5021299;28;24468;-78
2022/07/16 08:26:58;;;;;;;2.78;1.75;;;;;;;23.07;35.32;96375.34;5029471;28;24443;-75
2022/07/16 08:29:24;;;;;;;6.10;1.80;;;;;;;22.17;36.63;96369.53;5016331;28;24972;-75
2022/07/16 08:31:50;;;;;;;3.00;1.50;;;;;;;22.01;38.26;96371.97;5016358;28;24502;-77
2022/07/16 08:34:19;;;;;;;4.70;1.90;;;;;;;23.09;37.53;96372.53;5016176;28;24446;-76
2022/07/16 08:36:46;;;;;;;7.82;1.90;;;;;;;23.49;38.67;96379.75;5029758;28;24869;-75
2022/07/16 08:39:12;;;;;;;2.28;1.35;;;;;;;23.11;34.69;96376.66;5026926;28;24485;-75
2022/07/16 08:41:39;;;;;;;2.30;1.40;;;;;;;23.18;34.59;96377.69;5017921;28;24431;-77
2022/07/16 08:44:07;;;;;;;2.88;1.30;;;;;;;22.51;36.14;96383.72;5010095;28;24436;-75
2022/07/16 08:46:33;;;;;;;2.83;1.40;;;;;;;22.10;35.58;96379.00;5009965;28;24453;-77
2022/07/16 08:49:00;;;;;;;4.85;1.73;;;;;;;22.37;35.85;96380.69;5014132;28;24439;-75
2022/07/16 08:51:32;;;;;;;2.38;1.30;;;;;;;22.11;36.58;96385.09;5029011;28;24436;-75
2022/07/16 08:54:04;;;;;;;3.28;1.40;;;;;;;21.90;36.72;96375.69;5025557;28;24440;-75
2022/07/16 08:56:31;;;;;;;2.55;1.45;;;;;;;22.34;36.18;96383.63;5010095;28;24409;-75
2022/07/16 08:58:59;;;;;;;3.15;1.17;;;;;;;22.30;37.29;96376.19;5013715;28;24436;-75
2022/07/16 09:01:29;;;;;;;8.52;1.70;;;;;;;22.87;37.33;96377.34;5029309;28;24424;-76
2022/07/16 09:03:56;;;;;;;3.10;1.48;;;;;;;22.80;35.65;96378.13;5028238;28;24440;-75
2022/07/16 09:06:22;;;;;;;3.70;1.70;;;;;;;22.85;35.89;96379.34;5032100;28;24821;-75
2022/07/16 09:08:50;;;;;;;3.20;1.45;;;;;;;22.95;35.91;96387.16;5029597;28;25032;-75
2022/07/16 09:11:19;;;;;;;3.17;1.60;;;;;;;22.80;36.20;96386.06;5021660;28;24786;-76
2022/07/16 09:14:04;;;;;;;2.70;1.50;;;;;;;22.87;34.85;96390.56;5020155;28;24440;-75
2022/07/16 09:16:32;;;;;;;2.95;1.30;;;;;;;23.31;34.83;96387.78;5025152;28;24466;-75
2022/07/16 09:19:06;;;;;;;3.40;1.48;;;;;;;22.90;35.19;96392.88;5014294;28;24420;-75
2022/07/16 09:21:34;;;;;;;3.30;1.40;;;;;;;22.71;35.65;96388.66;5012919;28;24526;-76
2022/07/16 09:24:02;;;;;;;5.63;1.35;;;;;;;23.12;36.82;96390.69;5018512;28;24432;-77
2022/07/16 09:26:28;;;;;;;5.78;1.80;;;;;;;22.70;36.09;96388.81;5030510;28;24452;-78
2022/07/16 09:28:56;;;;;;;2.78;1.38;;;;;;;22.65;35.83;96391.09;5022355;28;24489;-74
2022/07/16 09:31:35;;;;;;;3.50;1.40;;;;;;;22.82;35.33;96394.66;5024899;28;24992;-77
2022/07/16 09:34:03;;;;;;;2.97;1.50;;;;;;;23.75;36.16;96392.91;5012612;28;24898;-76
2022/07/16 09:36:30;;;;;;;2.20;1.30;;;;;;;23.11;33.53;96394.34;5025485;28;24434;-74
2022/07/16 09:38:56;;;;;;;4.82;1.38;;;;;;;22.55;33.71;96395.66;5013029;28;24444;-74
2022/07/16 09:41:24;;;;;;;2.42;1.00;;;;;;;22.59;34.23;96402.28;5015353;28;24444;-75
2022/07/16 09:43:50;;;;;;;2.63;1.20;;;;;;;22.62;34.58;96400.16;5012574;28;24447;-76
2022/07/16 09:46:19;;;;;;;4.43;1.40;;;;;;;23.21;34.21;96402.13;5015212;28;24467;-77
2022/07/16 09:48:46;;;;;;;3.38;1.30;;;;;;;22.80;33.41;96400.09;5025933;28;24433;-76
2022/07/16 09:51:15;;;;;;;2.00;1.15;;;;;;;22.45;34.34;96399.22;5012748;28;24440;-76
2022/07/16 09:53:43;;;;;;;1.77;1.20;;;;;;;23.28;36.20;96400.50;5020448;28;25028;-76
2022/07/16 09:56:13;;;;;;;2.17;1.27;;;;;;;23.05;33.48;96400.25;5015329;28;24464;-74
2022/07/16 09:58:48;;;;;;;5.50;1.17;;;;;;;22.96;33.27;96404.69;5019693;28;24990;-74
2022/07/16 10:01:16;;;;;;;2.78;1.48;;;;;;;23.14;33.38;96402.78;5023440;28;24431;-74
2022/07/16 10:03:42;;;;;;;3.40;1.30;;;;;;;23.01;34.16;96396.28;5020961;28;24989;-75
2022/07/16 10:06:09;;;;;;;2.22;1.25;;;;;;;23.26;36.25;96400.69;5024969;28;24847;-76
2022/07/16 10:08:36;;;;;;;4.25;1.38;;;;;;;24.18;34.51;96406.84;5012512;28;24439;-76
2022/07/16 10:11:04;;;;;;;2.70;1.30;;;;;;;24.99;32.43;96407.72;5023130;28;24432;-76
2022/07/16 10:13:32;;;;;;;3.00;1.40;;;;;;;25.03;32.26;96398.44;5013244;28;24536;-76
2022/07/16 10:16:00;;;;;;;1.40;1.10;;;;;;;24.91;31.17;96397.16;5014325;28;24428;-76
2022/07/16 10:18:37;;;;;;;4.40;1.90;;;;;;;24.81;32.02;96397.38;5018642;28;24435;-76
2022/07/16 10:21:09;;;;;;;3.90;1.33;;;;;;;25.16;32.20;96395.28;5011271;28;24970;-76
2022/07/16 10:23:39;;;;;;;2.50;1.30;;;;;;;24.05;31.24;96403.84;5017972;28;24436;-76
2022/07/16 10:26:09;;;;;;;2.67;1.40;;;;;;;23.30;32.55;96402.00;5015584;28;24448;-76
2022/07/16 10:28:44;;;;;;;2.10;1.30;;;;;;;23.14;32.81;96404.59;5017937;28;24806;-76
2022/07/16 10:31:39;;;;;;;4.47;1.40;;;;;;;23.51;34.30;96406.88;5016113;28;24436;-76
2022/07/16 10:34:39;;;;;;;2.70;1.23;;;;;;;24.08;33.51;96406.16;5024224;28;24439;-76
2022/07/16 10:37:08;;;;;;;1.98;1.13;;;;;;;24.73;32.06;96389.41;5010922;28;24425;-76
2022/07/16 10:39:35;;;;;;;3.80;1.58;;;;;;;25.34;31.59;96404.66;5016337;28;24431;-76
2022/07/16 10:42:04;;;;;;;5.05;1.30;;;;;;;24.99;30.39;96403.28;5019276;28;24790;-76
2022/07/16 10:44:44;;;;;;;8.23;1.40;;;;;;;25.19;30.77;96389.66;5015873;28;24439;-76
2022/07/16 10:47:13;;;;;;;2.90;1.40;;;;;;;24.08;31.57;96393.75;5026940;28;24452;-77
2022/07/16 10:49:40;;;;;;;2.58;1.10;;;;;;;23.93;31.32;96397.22;5016084;28;24506;-77
2022/07/16 10:52:09;;;;;;;3.70;1.27;;;;;;;24.58;30.76;96400.72;5026151;28;24458;-76
2022/07/16 10:54:37;;;;;;;4.27;1.30;;;;;;;24.34;30.76;96396.22;5011992;28;24440;-76
2022/07/16 10:57:04;;;;;;;2.90;1.45;;;;;;;24.10;31.23;96396.22;5015652;28;24842;-76
2022/07/16 10:59:33;;;;;;;1.67;1.00;;;;;;;23.45;32.37;96393.47;5015912;28;24842;-76
2022/07/16 11:02:02;;;;;;;1.92;1.10;;;;;;;23.89;36.06;96392.25;5024823;28;24977;-76
2022/07/16 11:04:32;;;;;;;3.57;1.50;;;;;;;24.56;30.90;96396.56;5011963;28;24464;-76
2022/07/16 11:07:01;;;;;;;3.78;1.55;;;;;;;24.06;31.59;96394.91;5024358;28;24456;-76
2022/07/16 11:09:30;;;;;;;3.72;1.20;;;;;;;23.78;31.68;96399.69;5011962;28;24517;-76
2022/07/16 11:12:05;;;;;;;2.67;1.40;;;;;;;24.58;33.91;96403.38;5023728;28;24474;-76
2022/07/16 11:14:31;;;;;;;3.90;1.30;;;;;;;23.63;32.06;96397.66;5011542;28;24988;-76
2022/07/16 11:16:58;;;;;;;8.25;1.60;;;;;;;23.50;31.95;96391.16;5016062;28;24436;-76
2022/07/16 11:19:25;;;;;;;2.50;1.40;;;;;;;24.35;34.27;96397.88;5014911;28;24435;-76
2022/07/16 11:21:58;;;;;;;5.07;1.35;;;;;;;24.70;36.25;96400.38;5026682;28;24443;-76
2022/07/16 11:24:25;;;;;;;1.98;1.10;;;;;;;24.70;30.82;96408.31;5019193;28;24440;-76
2022/07/16 11:26:52;;;;;;;2.40;1.20;;;;;;;24.01;31.67;96400.69;5012305;28;24574;-76
2022/07/16 11:29:20;;;;;;;2.45;1.35;;;;;;;23.62;31.25;96401.28;5014879;28;25037;-76
2022/07/16 11:31:47;;;;;;;2.38;1.25;;;;;;;24.19;34.74;96402.38;5022390;28;24459;-76
2022/07/16 11:34:16;;;;;;;2.55;1.15;;;;;;;24.15;31.45;96407.97;5013632;28;24437;-76
2022/07/16 11:36:44;;;;;;;3.20;1.30;;;;;;;23.86;32.35;96395.22;5020869;28;24432;-76
2022/07/16 11:39:14;;;;;;;3.00;1.52;;;;;;;24.41;32.27;96398.25;5013745;28;24436;-76
2022/07/16 11:41:43;;;;;;;2.95;1.05;;;;;;;24.54;31.91;96406.50;5016846;28;24795;-76